createdAt,value
2022-12-23T00:01:30.693Z,99855.44
2022-12-23T00:04:01.857Z,99858.59
2022-12-23T00:06:31.799Z,99856.75
2022-12-23T00:09:02.803Z,99855.78
2022-12-23T00:11:57.527Z,99850.66
2022-12-23T00:14:40.040Z,99842.72
2022-12-23T00:17:21.936Z,99843.72
2022-12-23T00:19:52.813Z,99836.09
2022-12-23T00:22:42.828Z,99835.78
2022-12-23T00:25:13.776Z,99841.88
2022-12-23T00:28:01.311Z,99839.75
2022-12-23T00:30:31.548Z,99838.91
2022-12-23T00:33:02.514Z,99830.16
2022-12-23T00:35:34.080Z,99834.97
2022-12-23T00:38:04.014Z,99821.75
2022-12-23T00:40:49.352Z,99821.91
2022-12-23T00:43:22.027Z,99818.56
2022-12-23T00:45:52.038Z,99818.56
2022-12-23T00:48:34.412Z,99818.25
2022-12-23T00:51:04.506Z,99818.09
2022-12-23T00:53:34.721Z,99811.34
2022-12-23T00:56:04.700Z,99815.47
2022-12-23T00:58:37.273Z,99813.00
2022-12-23T01:01:19.801Z,99815.97
2022-12-23T01:04:02.144Z,99810.00
2022-12-23T01:06:37.642Z,99802.56
2022-12-23T01:09:08.523Z,99799.25
2022-12-23T01:11:38.723Z,99796.09
2022-12-23T01:14:12.870Z,99799.59
2022-12-23T01:16:43.309Z,99796.28
2022-12-23T01:19:13.318Z,99791.47
2022-12-23T01:21:44.256Z,99800.06
2022-12-23T01:24:14.380Z,99780.56
2022-12-23T01:26:44.419Z,99791.94
2022-12-23T01:29:17.113Z,99799.22
2022-12-23T01:31:47.094Z,99806.56
2022-12-23T01:34:17.164Z,99803.72
2022-12-23T01:36:47.155Z,99798.78
2022-12-23T01:39:17.074Z,99790.19
2022-12-23T01:41:59.448Z,99779.13
2022-12-23T01:45:02.140Z,99786.75
2022-12-23T01:47:41.705Z,99787.41
2022-12-23T01:50:15.525Z,99784.59
2022-12-23T01:52:48.769Z,99790.88
2022-12-23T01:55:23.647Z,99780.31
2022-12-23T01:58:01.375Z,99780.28
2022-12-23T02:00:43.687Z,99778.28
2022-12-23T02:03:28.690Z,99777.94
2022-12-23T02:06:20.726Z,99778.63
2022-12-23T02:09:03.137Z,99776.13
2022-12-23T02:12:01.156Z,99764.25
2022-12-23T02:14:55.742Z,99763.72
2022-12-23T02:17:31.198Z,99759.75
2022-12-23T02:20:33.273Z,99761.56
2022-12-23T02:23:28.193Z,99764.22
2022-12-23T02:26:14.450Z,99747.88
2022-12-23T02:29:10.941Z,99753.31
2022-12-23T02:31:56.845Z,99749.88
2022-12-23T02:34:37.458Z,99749.88
2022-12-23T02:37:13.392Z,99740.94
2022-12-23T02:39:51.117Z,99732.34
2022-12-23T02:42:25.701Z,99736.00
2022-12-23T02:45:02.928Z,99731.38
2022-12-23T02:47:43.451Z,99729.38
2022-12-23T02:50:18.854Z,99718.19
2022-12-23T02:52:52.591Z,99725.13
2022-12-23T02:55:33.639Z,99714.25
2022-12-23T02:58:07.858Z,99717.06
2022-12-23T03:00:38.807Z,99704.81
2022-12-23T03:03:11.835Z,99706.94
2022-12-23T03:05:45.780Z,99704.47
2022-12-23T03:08:19.874Z,99703.84
2022-12-23T03:11:06.457Z,99704.16
2022-12-23T03:13:51.907Z,99706.31
2022-12-23T03:16:26.677Z,99699.69
2022-12-23T03:19:12.195Z,99695.41
2022-12-23T03:21:48.640Z,99694.06
2022-12-23T03:24:27.343Z,99695.06
2022-12-23T03:27:04.035Z,99695.06
2022-12-23T03:29:42.006Z,99693.44
2022-12-23T03:32:15.158Z,99687.47
2022-12-23T03:34:51.260Z,99692.75
2022-12-23T03:37:23.475Z,99695.41
2022-12-23T03:39:59.607Z,99692.41
2022-12-23T03:42:35.276Z,99697.53
2022-12-23T03:45:37.664Z,99705.97
2022-12-23T03:48:06.251Z,99681.19
2022-12-23T03:50:41.569Z,99674.59
2022-12-23T03:53:14.845Z,99673.63
2022-12-23T03:55:52.135Z,99672.13
2022-12-23T03:58:32.191Z,99666.34
2022-12-23T04:01:07.564Z,99667.63
2022-12-23T04:03:44.615Z,99664.00
2022-12-23T04:06:20.371Z,99663.38
2022-12-23T04:08:52.164Z,99666.69
2022-12-23T04:11:22.615Z,99668.97
2022-12-23T04:13:52.704Z,99666.19
2022-12-23T04:16:22.951Z,99657.09
2022-12-23T04:18:52.970Z,99657.59
2022-12-23T04:21:25.551Z,99657.75
2022-12-23T04:23:55.576Z,99657.41
2022-12-23T04:26:25.584Z,99647.97
2022-12-23T04:28:55.617Z,99646.78
2022-12-23T04:31:25.665Z,99644.50
2022-12-23T04:33:55.760Z,99649.13
2022-12-23T04:36:28.413Z,99651.44
2022-12-23T04:38:58.523Z,99650.09
2022-12-23T04:41:28.491Z,99648.78
2022-12-23T04:43:58.466Z,99644.97
2022-12-23T04:46:28.534Z,99645.78
2022-12-23T04:48:58.623Z,99642.31
2022-12-23T04:51:31.245Z,99648.41
2022-12-23T04:54:01.272Z,99650.88
2022-12-23T04:56:31.223Z,99648.25
2022-12-23T04:59:02.335Z,99644.44
2022-12-23T05:01:32.605Z,99643.91
2022-12-23T05:04:02.890Z,99644.56
2022-12-23T05:06:35.536Z,99641.09
2022-12-23T05:09:06.153Z,99640.44
2022-12-23T05:11:41.941Z,99640.44
2022-12-23T05:14:13.014Z,99633.97
2022-12-23T05:16:43.107Z,99637.91
2022-12-23T05:19:13.711Z,99641.19
2022-12-23T05:22:06.569Z,99626.16
2022-12-23T05:24:36.588Z,99641.84
2022-12-23T05:27:06.872Z,99635.09
2022-12-23T05:29:36.838Z,99650.97
2022-12-23T05:32:07.307Z,99640.03
2022-12-23T05:34:37.488Z,99646.97
2022-12-23T05:37:10.066Z,99646.97
2022-12-23T05:39:40.088Z,99644.97
2022-12-23T05:42:10.001Z,99643.31
2022-12-23T05:44:40.150Z,99634.09
2022-12-23T05:47:10.108Z,99632.63
2022-12-23T05:49:40.133Z,99638.72
2022-12-23T05:52:30.990Z,99636.75
2022-12-23T05:55:00.952Z,99650.78
2022-12-23T05:57:32.010Z,99648.31
2022-12-23T06:00:01.965Z,99643.84
2022-12-23T06:02:42.627Z,99646.50
2022-12-23T06:05:17.082Z,99647.31
2022-12-23T06:07:49.615Z,99647.50
2022-12-23T06:10:19.832Z,99636.91
2022-12-23T06:12:49.801Z,99648.31
2022-12-23T06:15:19.905Z,99652.44
2022-12-23T06:17:49.988Z,99644.31
2022-12-23T06:20:21.199Z,99649.44
2022-12-23T06:22:54.019Z,99649.09
2022-12-23T06:25:24.131Z,99651.06
2022-12-23T06:27:54.271Z,99649.09
2022-12-23T06:30:24.360Z,99662.31
2022-12-23T06:32:54.594Z,99663.31
2022-12-23T06:35:24.561Z,99668.41
2022-12-23T06:37:58.298Z,99676.00
2022-12-23T06:40:29.097Z,99686.22
2022-12-23T06:42:59.350Z,99681.75
2022-12-23T06:45:29.878Z,99681.75
2022-12-23T06:47:59.987Z,99700.94
2022-12-23T06:50:55.958Z,99692.00
2022-12-23T06:53:28.540Z,99691.19
2022-12-23T06:56:02.858Z,99696.31
2022-12-23T06:58:33.014Z,99696.13
2022-12-23T07:01:03.027Z,99704.25
2022-12-23T07:03:33.162Z,99709.53
2022-12-23T07:06:03.166Z,99705.06
2022-12-23T07:08:35.828Z,99703.41
2022-12-23T07:11:07.253Z,99704.25
2022-12-23T07:13:37.499Z,99714.63
2022-12-23T07:16:09.815Z,99717.28
2022-12-23T07:18:39.879Z,99716.47
2022-12-23T07:21:19.757Z,99718.28
2022-12-23T07:23:54.096Z,99723.09
2022-12-23T07:26:24.108Z,99722.59
2022-12-23T07:28:54.124Z,99722.66
2022-12-23T07:31:24.251Z,99723.34
2022-12-23T07:33:54.507Z,99731.78
2022-12-23T07:36:24.638Z,99728.16
2022-12-23T07:38:58.236Z,99737.56
2022-12-23T07:41:28.167Z,99733.75
2022-12-23T07:44:07.167Z,99734.22
2022-12-23T07:46:37.226Z,99736.03
2022-12-23T07:49:07.261Z,99736.88
2022-12-23T07:51:37.422Z,99736.03
2022-12-23T07:54:09.988Z,99742.66
2022-12-23T07:56:39.893Z,99734.25
2022-12-23T07:59:09.910Z,99739.56
2022-12-23T08:01:40.086Z,99740.84
2022-12-23T08:04:10.187Z,99739.34
2022-12-23T08:06:41.471Z,99738.63
2022-12-23T08:09:14.767Z,99747.03
2022-12-23T08:11:48.176Z,99758.13
2022-12-23T08:14:18.193Z,99759.44
2022-12-23T08:16:48.325Z,99762.06
2022-12-23T08:19:18.486Z,99759.06
2022-12-23T08:21:48.476Z,99763.38
2022-12-23T08:24:21.122Z,99771.78
2022-12-23T08:26:51.138Z,99774.06
2022-12-23T08:29:21.249Z,99773.25
2022-12-23T08:31:51.748Z,99773.06
2022-12-23T08:34:22.107Z,99774.38
2022-12-23T08:36:52.183Z,99768.09
2022-12-23T08:39:24.727Z,99767.72
2022-12-23T08:41:54.746Z,99775.84
2022-12-23T08:44:27.077Z,99767.72
2022-12-23T08:46:57.263Z,99782.09
2022-12-23T08:49:27.518Z,99776.78
2022-12-23T08:51:57.601Z,99782.91
2022-12-23T08:54:30.175Z,99769.69
2022-12-23T08:57:00.263Z,99775.63
2022-12-23T08:59:30.250Z,99786.19
2022-12-23T09:02:02.231Z,99787.84
2022-12-23T09:04:32.607Z,99793.13
2022-12-23T09:07:02.877Z,99798.28
2022-12-23T09:09:36.452Z,99790.34
2022-12-23T09:12:09.739Z,99791.00
2022-12-23T09:14:42.755Z,99795.28
2022-12-23T09:17:13.176Z,99812.66
2022-12-23T09:19:48.582Z,99828.72
2022-12-23T09:22:22.591Z,99821.25
2022-12-23T09:25:01.275Z,99835.16
2022-12-23T09:27:34.914Z,99837.81
2022-12-23T09:30:05.459Z,99831.50
2022-12-23T09:32:35.788Z,99825.06
2022-12-23T09:35:06.120Z,99828.53
2022-12-23T09:37:36.493Z,99851.34
2022-12-23T09:40:10.880Z,99858.47
2022-12-23T09:42:52.856Z,99854.81
2022-12-23T09:45:41.542Z,99857.63
2022-12-23T09:48:16.878Z,99867.88
2022-12-23T09:50:47.610Z,99878.28
2022-12-23T09:53:21.285Z,99883.41
2022-12-23T09:56:03.049Z,99886.22
2022-12-23T09:58:43.635Z,99879.94
2022-12-23T10:01:21.817Z,99884.22
2022-12-23T10:04:23.540Z,99889.34
2022-12-23T10:07:03.057Z,99898.28
2022-12-23T10:09:41.143Z,99892.00
2022-12-23T10:12:27.238Z,99889.69
2022-12-23T10:15:01.262Z,99877.09
2022-12-23T10:17:41.952Z,99881.59
2022-12-23T10:20:20.896Z,99889.69
2022-12-23T10:22:50.933Z,99888.03
2022-12-23T10:25:28.424Z,99881.94
2022-12-23T10:28:01.113Z,99889.88
2022-12-23T10:31:05.890Z,99890.03
2022-12-23T10:33:39.249Z,99897.50
2022-12-23T10:36:17.054Z,99898.50
2022-12-23T10:38:57.342Z,99887.75
2022-12-23T10:41:38.431Z,99889.22
2022-12-23T10:44:27.811Z,99883.91
2022-12-23T10:47:08.916Z,99891.16
2022-12-23T10:49:51.029Z,99899.59
2022-12-23T10:52:40.990Z,99896.41
2022-12-23T10:55:24.304Z,99893.94
2022-12-23T10:58:02.713Z,99892.13
2022-12-23T11:00:35.370Z,99884.19
2022-12-23T11:03:15.819Z,99879.53
2022-12-23T11:05:47.389Z,99888.13
2022-12-23T11:08:18.209Z,99881.34
2022-12-23T11:10:48.944Z,99888.28
2022-12-23T11:13:43.148Z,99882.84
2022-12-23T11:16:26.456Z,99887.59
2022-12-23T11:19:04.730Z,99891.06
2022-12-23T11:21:36.315Z,99897.53
2022-12-23T11:24:12.543Z,99896.88
2022-12-23T11:26:42.740Z,99887.31
2022-12-23T11:29:16.023Z,99892.41
2022-12-23T11:31:48.918Z,99890.94
2022-12-23T11:34:21.043Z,99888.13
2022-12-23T11:37:03.356Z,99894.59
2022-12-23T11:39:37.658Z,99887.00
2022-12-23T11:42:14.734Z,99887.00
2022-12-23T11:44:48.458Z,99901.22
2022-12-23T11:47:41.106Z,99901.41
2022-12-23T11:50:30.975Z,99904.34
2022-12-23T11:53:13.843Z,99911.94
2022-12-23T11:55:49.854Z,99922.38
2022-12-23T11:58:24.340Z,99932.13
2022-12-23T12:00:57.873Z,99920.88
2022-12-23T12:03:34.657Z,99917.06
2022-12-23T12:06:07.932Z,99908.31
2022-12-23T12:08:40.491Z,99924.00
2022-12-23T12:11:19.612Z,99934.44
2022-12-23T12:13:52.986Z,99942.38
2022-12-23T12:16:49.470Z,99957.44
2022-12-23T12:19:27.429Z,99954.44
2022-12-23T12:22:03.687Z,99947.97
2022-12-23T12:24:40.688Z,99941.69
2022-12-23T12:27:14.864Z,99943.00
2022-12-23T12:29:49.941Z,99947.97
2022-12-23T12:32:29.222Z,99954.91
2022-12-23T12:35:05.828Z,99951.44
2022-12-23T12:37:41.211Z,99950.44
2022-12-23T12:40:20.993Z,99941.84
2022-12-23T12:42:59.961Z,99940.84
2022-12-23T12:45:39.863Z,99944.13
2022-12-23T12:48:28.572Z,99935.00
2022-12-23T12:51:07.058Z,99933.84
2022-12-23T12:53:40.745Z,99939.59
2022-12-23T12:56:19.047Z,99933.13
2022-12-23T12:58:49.054Z,99927.84
2022-12-23T13:01:36.438Z,99926.84
2022-12-23T13:04:35.648Z,99918.88
2022-12-23T13:07:19.879Z,99912.63
2022-12-23T13:10:02.453Z,99916.91
2022-12-23T13:12:45.805Z,99919.06
2022-12-23T13:15:24.739Z,99922.81
2022-12-23T13:18:10.665Z,99932.06
2022-12-23T13:20:48.865Z,99932.22
2022-12-23T13:26:35.806Z,99923.56
2022-12-23T13:29:35.167Z,99925.50
2022-12-23T13:32:17.676Z,99922.56
2022-12-23T13:34:59.245Z,99922.66
2022-12-23T13:37:39.026Z,99905.16
2022-12-23T13:40:25.854Z,99898.41
2022-12-23T13:43:00.384Z,99899.22
2022-12-23T13:45:40.210Z,99909.19
2022-12-23T13:48:29.698Z,99911.34
2022-12-23T13:51:06.753Z,99905.41
2022-12-23T13:53:51.186Z,99898.59
2022-12-23T13:56:32.306Z,99896.59
2022-12-23T13:59:02.912Z,99892.31
2022-12-23T14:01:38.515Z,99894.81
2022-12-23T14:04:34.501Z,99891.84
2022-12-23T14:07:10.162Z,99906.44
2022-12-23T14:09:41.775Z,99899.69
2022-12-23T14:12:23.058Z,99900.19
2022-12-23T14:15:15.256Z,99912.31
2022-12-23T14:17:57.154Z,99904.34
2022-12-23T14:20:44.196Z,99910.66
2022-12-23T14:23:30.108Z,99915.31
2022-12-23T14:26:24.097Z,99908.34
2022-12-23T14:29:09.373Z,99905.72
2022-12-23T14:31:43.165Z,99896.94
2022-12-23T14:34:30.342Z,99905.88
2022-12-23T14:37:18.944Z,99913.00
2022-12-23T14:39:49.755Z,99920.31
2022-12-23T14:42:36.999Z,99915.81
2022-12-23T14:45:38.087Z,99910.34
2022-12-23T14:49:15.991Z,99913.34
2022-12-23T14:51:45.180Z,99917.59
2022-12-23T14:54:18.162Z,99915.47
2022-12-23T14:57:09.278Z,99916.16
2022-12-23T14:59:51.431Z,99915.81
2022-12-23T15:02:33.326Z,99918.75
2022-12-23T15:05:04.109Z,99928.00
2022-12-23T15:07:36.652Z,99922.06
2022-12-23T15:10:09.387Z,99921.41
2022-12-23T15:12:41.922Z,99934.31
2022-12-23T15:15:17.975Z,99933.13
2022-12-23T15:17:51.339Z,99932.94
2022-12-23T15:20:28.220Z,99926.41
2022-12-23T15:23:03.839Z,99932.69
2022-12-23T15:25:36.407Z,99936.34
2022-12-23T15:28:07.850Z,99928.75
2022-12-23T15:30:48.949Z,99927.56
2022-12-23T15:36:14.365Z,99933.38
2022-12-23T15:38:44.814Z,99939.16
2022-12-23T15:41:17.383Z,99932.56
2022-12-23T15:43:48.036Z,99921.50
2022-12-23T15:46:26.976Z,99919.97
2022-12-23T15:49:02.150Z,99915.81
2022-12-23T15:52:05.766Z,99910.69
2022-12-23T15:54:29.888Z,99922.75
2022-12-23T15:57:02.004Z,99914.34
2022-12-23T15:59:36.111Z,99908.22
2022-12-23T16:02:49.546Z,99909.88
2022-12-23T16:05:08.001Z,99909.53
2022-12-23T16:07:40.332Z,99918.63
2022-12-23T16:10:18.163Z,99914.50
2022-12-23T16:12:48.291Z,99919.16
2022-12-23T16:15:29.833Z,99915.34
2022-12-23T16:18:15.188Z,99917.81
2022-12-23T16:20:50.106Z,99918.47
2022-12-23T16:23:20.813Z,99920.94
2022-12-23T16:25:52.320Z,99921.75
2022-12-23T16:28:24.962Z,99921.75
2022-12-23T16:30:57.384Z,99914.81
2022-12-23T16:33:38.712Z,99929.69
2022-12-23T16:36:23.618Z,99929.88
2022-12-23T16:38:55.878Z,99936.16
2022-12-23T16:41:25.843Z,99934.34
2022-12-23T16:43:55.861Z,99927.91
2022-12-23T16:46:26.017Z,99926.44
2022-12-23T16:49:19.283Z,99923.63
2022-12-23T16:51:52.360Z,99926.91
2022-12-23T16:54:23.140Z,99933.03
2022-12-23T16:56:53.228Z,99927.25
2022-12-23T16:59:24.928Z,99918.69
2022-12-23T17:02:02.932Z,99921.81
2022-12-23T17:04:33.522Z,99927.78
2022-12-23T17:07:12.083Z,99916.03
2022-12-23T17:09:42.101Z,99904.28
2022-12-23T17:12:13.007Z,99900.63
2022-12-23T17:14:42.965Z,99905.56
2022-12-23T17:17:18.270Z,99890.53
2022-12-23T17:19:48.213Z,99887.03
2022-12-23T17:22:21.873Z,99891.34
2022-12-23T17:24:51.834Z,99893.16
2022-12-23T17:27:22.921Z,99892.34
2022-12-23T17:29:52.835Z,99881.75
2022-12-23T17:32:23.068Z,99882.56
2022-12-23T17:34:53.049Z,99879.94
2022-12-23T17:37:25.723Z,99875.28
2022-12-23T17:39:55.664Z,99874.47
2022-12-23T17:42:26.413Z,99869.16
2022-12-23T17:44:56.432Z,99870.16
2022-12-23T17:47:26.454Z,99873.81
2022-12-23T17:49:56.415Z,99859.28
2022-12-23T17:52:29.004Z,99862.75
2022-12-23T17:54:58.895Z,99857.81
2022-12-23T17:57:30.540Z,99854.34
2022-12-23T18:00:00.467Z,99860.28
2022-12-23T18:02:33.165Z,99853.50
2022-12-23T18:05:03.476Z,99847.41
2022-12-23T18:07:36.049Z,99846.75
2022-12-23T18:10:06.381Z,99842.28
2022-12-23T18:12:38.925Z,99849.88
2022-12-23T18:15:17.193Z,99835.00
2022-12-23T18:17:47.124Z,99838.63
2022-12-23T18:20:19.152Z,99832.84
2022-12-23T18:22:59.319Z,99828.38
2022-12-23T18:25:30.123Z,99837.13
2022-12-23T18:28:00.475Z,99828.53
2022-12-23T18:30:30.506Z,99828.53
2022-12-23T18:33:00.908Z,99834.66
2022-12-23T18:35:34.134Z,99830.38
2022-12-23T18:38:06.821Z,99829.19
2022-12-23T18:40:36.720Z,99829.38
2022-12-23T18:43:06.711Z,99837.47
2022-12-23T18:45:41.816Z,99823.59
2022-12-23T18:48:12.814Z,99823.94
2022-12-23T18:50:44.390Z,99825.94
2022-12-23T18:53:23.783Z,99819.00
2022-12-23T18:55:55.356Z,99820.00
2022-12-23T18:58:27.039Z,99821.81
2022-12-23T19:00:57.246Z,99823.47
2022-12-23T19:03:29.886Z,99827.13
2022-12-23T19:06:19.026Z,99833.88
2022-12-23T19:08:51.806Z,99834.34
2022-12-23T19:11:23.710Z,99839.81
2022-12-23T19:13:53.668Z,99843.47
2022-12-23T19:16:27.139Z,99837.53
2022-12-23T19:18:57.408Z,99835.69
2022-12-23T19:21:28.447Z,99833.88
2022-12-23T19:24:03.015Z,99834.06
2022-12-23T19:26:32.969Z,99834.53
2022-12-23T19:29:03.208Z,99831.88
2022-12-23T19:31:34.078Z,99829.25
2022-12-23T19:34:06.091Z,99824.28
2022-12-23T19:36:39.903Z,99823.00
2022-12-23T19:39:16.984Z,99824.00
2022-12-23T19:41:53.554Z,99822.03
2022-12-23T19:44:23.463Z,99824.03
2022-12-23T19:46:53.618Z,99819.91
2022-12-23T19:49:23.659Z,99815.44
2022-12-23T19:51:53.759Z,99819.91
2022-12-23T19:54:26.288Z,99820.75
2022-12-23T19:56:56.289Z,99812.16
2022-12-23T19:59:26.365Z,99815.78
2022-12-23T20:01:56.875Z,99810.84
2022-12-23T20:04:26.856Z,99806.91
2022-12-23T20:06:56.821Z,99801.75
2022-12-23T20:09:34.651Z,99808.03
2022-12-23T20:12:04.607Z,99801.28
2022-12-23T20:14:34.999Z,99804.75
2022-12-23T20:17:05.115Z,99802.75
2022-12-23T20:19:43.881Z,99794.81
2022-12-23T20:22:15.922Z,99798.13
2022-12-23T20:24:48.654Z,99801.75
2022-12-23T20:27:24.216Z,99798.28
2022-12-23T20:29:57.692Z,99795.66
2022-12-23T20:32:27.609Z,99790.69
2022-12-23T20:34:57.556Z,99780.94
2022-12-23T20:37:27.586Z,99775.66
2022-12-23T20:40:00.140Z,99772.84
2022-12-23T20:42:30.089Z,99766.06
2022-12-23T20:45:17.958Z,99774.34
2022-12-23T20:47:47.872Z,99769.53
2022-12-23T20:50:18.963Z,99766.06
2022-12-23T20:52:49.109Z,99764.44
2022-12-23T20:55:21.709Z,99766.25
2022-12-23T20:57:51.698Z,99756.03
2022-12-23T21:00:22.071Z,99751.09
2022-12-23T21:02:52.055Z,99755.53
2022-12-23T21:05:21.989Z,99758.84
2022-12-23T21:07:51.895Z,99756.84
2022-12-23T21:10:24.463Z,99760.00
2022-12-23T21:12:54.495Z,99763.00
2022-12-23T21:15:24.472Z,99764.34
2022-12-23T21:17:54.479Z,99763.53
2022-12-23T21:20:24.819Z,99760.06
2022-12-23T21:22:54.767Z,99762.34
2022-12-23T21:25:27.297Z,99767.63
2022-12-23T21:27:57.292Z,99763.16
2022-12-23T21:30:27.221Z,99768.47
2022-12-23T21:33:02.486Z,99768.28
2022-12-23T21:35:32.525Z,99758.06
2022-12-23T21:38:02.496Z,99760.69
2022-12-23T21:40:35.019Z,99756.59
2022-12-23T21:43:08.720Z,99762.88
2022-12-23T21:45:38.989Z,99764.69
2022-12-23T21:48:08.953Z,99762.88
2022-12-23T21:50:39.031Z,99759.41
2022-12-23T21:53:09.115Z,99759.41
2022-12-23T21:55:42.798Z,99758.91
2022-12-23T21:58:12.855Z,99754.97
2022-12-23T22:00:42.884Z,99754.16
2022-12-23T22:03:12.882Z,99761.25
2022-12-23T22:05:43.858Z,99744.56
2022-12-23T22:08:13.768Z,99747.22
2022-12-23T22:10:48.046Z,99746.88
2022-12-23T22:13:18.082Z,99747.88
2022-12-23T22:15:48.056Z,99750.34
2022-12-23T22:18:18.009Z,99746.41
2022-12-23T22:20:48.271Z,99734.81
2022-12-23T22:23:18.292Z,99742.59
2022-12-23T22:25:57.417Z,99746.22
2022-12-23T22:28:27.369Z,99742.09
2022-12-23T22:31:04.057Z,99748.22
2022-12-23T22:33:34.894Z,99739.63
2022-12-23T22:36:05.144Z,99736.81
2022-12-23T22:38:35.097Z,99738.81
2022-12-23T22:41:08.062Z,99744.22
2022-12-23T22:43:38.018Z,99736.47
2022-12-23T22:46:08.455Z,99732.34
2022-12-23T22:48:38.731Z,99733.84
2022-12-23T22:51:10.482Z,99731.19
2022-12-23T22:53:40.480Z,99730.53
2022-12-23T22:56:14.677Z,99728.06
2022-12-23T22:58:45.420Z,99729.25
2022-12-23T23:01:24.226Z,99731.38
2022-12-23T23:03:57.416Z,99730.88
2022-12-23T23:06:28.502Z,99731.34
2022-12-23T23:08:59.463Z,99735.66
2022-12-23T23:11:32.568Z,99728.38
2022-12-23T23:14:02.539Z,99730.66
2022-12-23T23:16:33.208Z,99738.25
2022-12-23T23:19:03.970Z,99730.31
2022-12-23T23:21:34.399Z,99728.50
2022-12-23T23:24:04.368Z,99731.97
2022-12-23T23:26:40.691Z,99732.78
2022-12-23T23:29:10.654Z,99728.50
2022-12-23T23:31:42.885Z,99727.03
2022-12-23T23:34:13.795Z,99732.13
2022-12-23T23:36:44.329Z,99726.03
2022-12-23T23:39:15.532Z,99729.66
2022-12-23T23:41:48.453Z,99740.25
2022-12-23T23:44:18.574Z,99743.06
2022-12-23T23:46:59.010Z,99735.13
2022-12-23T23:49:29.091Z,99739.94
2022-12-23T23:51:59.071Z,99742.94
2022-12-23T23:54:29.139Z,99745.06
2022-12-23T23:57:01.730Z,99747.22
2022-12-23T23:59:32.030Z,99744.91
